sensor_id;sensor_type;location;lat;lon;timestamp;P1;durP1;ratioP1;P2;durP2;ratioP2
19312;SDS011;9791;50.820;4.406;2023-07-28T00:02:13;8.90;;;2.90;;
19312;SDS011;9791;50.820;4.406;2023-07-28T00:04:39;8.45;;;3.63;;
19312;SDS011;9791;50.820;4.406;2023-07-28T00:07:05;7.45;;;3.20;;
19312;SDS011;9791;50.820;4.406;2023-07-28T00:09:31;6.97;;;2.95;;
19312;SDS011;9791;50.820;4.406;2023-07-28T00:11:57;5.50;;;3.25;;
19312;SDS011;9791;50.820;4.406;2023-07-28T00:14:24;6.72;;;3.17;;
19312;SDS011;9791;50.820;4.406;2023-07-28T00:16:50;6.60;;;3.13;;
19312;SDS011;9791;50.820;4.406;2023-07-28T00:19:16;6.20;;;3.13;;
19312;SDS011;9791;50.820;4.406;2023-07-28T00:21:42;7.15;;;3.47;;
19312;SDS011;9791;50.820;4.406;2023-07-28T00:24:08;5.05;;;3.13;;
19312;SDS011;9791;50.820;4.406;2023-07-28T00:26:34;5.15;;;3.55;;
19312;SDS011;9791;50.820;4.406;2023-07-28T00:29:00;5.50;;;3.20;;
19312;SDS011;9791;50.820;4.406;2023-07-28T00:31:30;7.65;;;3.30;;
19312;SDS011;9791;50.820;4.406;2023-07-28T00:33:56;8.30;;;3.47;;
19312;SDS011;9791;50.820;4.406;2023-07-28T00:36:22;5.03;;;3.08;;
19312;SDS011;9791;50.820;4.406;2023-07-28T00:38:48;6.38;;;3.17;;
19312;SDS011;9791;50.820;4.406;2023-07-28T00:41:14;6.32;;;3.42;;
19312;SDS011;9791;50.820;4.406;2023-07-28T00:43:41;9.30;;;3.33;;
19312;SDS011;9791;50.820;4.406;2023-07-28T00:46:08;5.07;;;3.40;;
19312;SDS011;9791;50.820;4.406;2023-07-28T00:48:34;4.78;;;3.00;;
19312;SDS011;9791;50.820;4.406;2023-07-28T00:51:00;6.80;;;3.63;;
19312;SDS011;9791;50.820;4.406;2023-07-28T00:53:26;5.03;;;3.10;;
19312;SDS011;9791;50.820;4.406;2023-07-28T00:55:53;6.35;;;3.55;;
19312;SDS011;9791;50.820;4.406;2023-07-28T00:58:19;5.75;;;3.20;;
19312;SDS011;9791;50.820;4.406;2023-07-28T01:00:45;6.97;;;4.00;;
19312;SDS011;9791;50.820;4.406;2023-07-28T01:03:12;5.75;;;3.10;;
19312;SDS011;9791;50.820;4.406;2023-07-28T01:05:49;7.00;;;3.35;;
19312;SDS011;9791;50.820;4.406;2023-07-28T01:09:05;6.03;;;3.30;;
19312;SDS011;9791;50.820;4.406;2023-07-28T01:11:11;6.32;;;3.20;;
19312;SDS011;9791;50.820;4.406;2023-07-28T01:13:37;5.95;;;3.53;;
19312;SDS011;9791;50.820;4.406;2023-07-28T01:16:03;6.18;;;3.50;;
19312;SDS011;9791;50.820;4.406;2023-07-28T01:18:29;5.60;;;3.50;;
19312;SDS011;9791;50.820;4.406;2023-07-28T01:20:56;5.93;;;3.03;;
19312;SDS011;9791;50.820;4.406;2023-07-28T01:26:09;7.57;;;3.42;;
19312;SDS011;9791;50.820;4.406;2023-07-28T01:28:36;5.90;;;3.25;;
19312;SDS011;9791;50.820;4.406;2023-07-28T01:31:03;5.88;;;3.78;;
19312;SDS011;9791;50.820;4.406;2023-07-28T01:33:29;6.55;;;3.80;;
19312;SDS011;9791;50.820;4.406;2023-07-28T01:35:55;7.55;;;3.58;;
19312;SDS011;9791;50.820;4.406;2023-07-28T01:38:21;12.13;;;3.95;;
19312;SDS011;9791;50.820;4.406;2023-07-28T01:40:47;7.07;;;3.70;;
19312;SDS011;9791;50.820;4.406;2023-07-28T01:43:13;6.28;;;3.90;;
19312;SDS011;9791;50.820;4.406;2023-07-28T01:45:39;7.63;;;4.03;;
19312;SDS011;9791;50.820;4.406;2023-07-28T01:48:05;6.60;;;4.10;;
19312;SDS011;9791;50.820;4.406;2023-07-28T01:50:34;6.55;;;4.00;;
19312;SDS011;9791;50.820;4.406;2023-07-28T01:53:00;8.68;;;4.03;;
19312;SDS011;9791;50.820;4.406;2023-07-28T01:55:26;6.55;;;4.05;;
19312;SDS011;9791;50.820;4.406;2023-07-28T01:57:57;7.70;;;4.28;;
19312;SDS011;9791;50.820;4.406;2023-07-28T02:00:23;6.97;;;5.07;;
19312;SDS011;9791;50.820;4.406;2023-07-28T02:02:49;9.00;;;4.72;;
19312;SDS011;9791;50.820;4.406;2023-07-28T02:05:15;8.05;;;4.97;;
19312;SDS011;9791;50.820;4.406;2023-07-28T02:07:42;9.00;;;5.18;;
19312;SDS011;9791;50.820;4.406;2023-07-28T02:10:08;8.73;;;5.05;;
19312;SDS011;9791;50.820;4.406;2023-07-28T02:12:35;11.52;;;5.38;;
19312;SDS011;9791;50.820;4.406;2023-07-28T02:15:01;6.05;;;4.38;;
19312;SDS011;9791;50.820;4.406;2023-07-28T02:17:27;9.73;;;5.45;;
19312;SDS011;9791;50.820;4.406;2023-07-28T02:19:53;13.00;;;5.13;;
19312;SDS011;9791;50.820;4.406;2023-07-28T02:22:19;10.80;;;4.78;;
19312;SDS011;9791;50.820;4.406;2023-07-28T02:24:46;10.82;;;5.20;;
19312;SDS011;9791;50.820;4.406;2023-07-28T02:27:12;8.80;;;4.78;;
19312;SDS011;9791;50.820;4.406;2023-07-28T02:29:38;8.32;;;4.55;;
19312;SDS011;9791;50.820;4.406;2023-07-28T02:32:05;10.63;;;4.93;;
19312;SDS011;9791;50.820;4.406;2023-07-28T02:34:31;8.10;;;4.57;;
19312;SDS011;9791;50.820;4.406;2023-07-28T02:36:57;8.13;;;4.63;;
19312;SDS011;9791;50.820;4.406;2023-07-28T02:39:23;9.45;;;4.65;;
19312;SDS011;9791;50.820;4.406;2023-07-28T02:41:50;8.98;;;4.85;;
19312;SDS011;9791;50.820;4.406;2023-07-28T02:44:16;9.15;;;5.15;;
19312;SDS011;9791;50.820;4.406;2023-07-28T02:46:42;7.50;;;4.57;;
19312;SDS011;9791;50.820;4.406;2023-07-28T02:49:08;10.18;;;4.93;;
19312;SDS011;9791;50.820;4.406;2023-07-28T02:51:34;7.63;;;4.45;;
19312;SDS011;9791;50.820;4.406;2023-07-28T02:54:00;6.65;;;4.35;;
19312;SDS011;9791;50.820;4.406;2023-07-28T02:56:26;6.95;;;4.45;;
19312;SDS011;9791;50.820;4.406;2023-07-28T02:58:52;7.90;;;4.53;;
19312;SDS011;9791;50.820;4.406;2023-07-28T03:01:18;7.80;;;4.40;;
19312;SDS011;9791;50.820;4.406;2023-07-28T03:03:44;6.60;;;4.55;;
19312;SDS011;9791;50.820;4.406;2023-07-28T03:06:10;9.23;;;4.63;;
19312;SDS011;9791;50.820;4.406;2023-07-28T03:08:36;7.07;;;4.07;;
19312;SDS011;9791;50.820;4.406;2023-07-28T03:11:02;5.13;;;3.72;;
19312;SDS011;9791;50.820;4.406;2023-07-28T03:13:29;8.82;;;4.35;;
19312;SDS011;9791;50.820;4.406;2023-07-28T03:15:55;7.03;;;4.00;;
19312;SDS011;9791;50.820;4.406;2023-07-28T03:18:21;5.88;;;4.15;;
19312;SDS011;9791;50.820;4.406;2023-07-28T03:20:47;12.02;;;5.15;;
19312;SDS011;9791;50.820;4.406;2023-07-28T03:23:13;7.53;;;4.63;;
19312;SDS011;9791;50.820;4.406;2023-07-28T03:25:39;8.93;;;3.92;;
19312;SDS011;9791;50.820;4.406;2023-07-28T03:28:05;7.22;;;4.18;;
19312;SDS011;9791;50.820;4.406;2023-07-28T03:30:31;9.10;;;4.60;;
19312;SDS011;9791;50.820;4.406;2023-07-28T03:32:57;6.35;;;3.58;;
19312;SDS011;9791;50.820;4.406;2023-07-28T03:35:23;7.25;;;4.30;;
19312;SDS011;9791;50.820;4.406;2023-07-28T03:37:49;8.55;;;3.70;;
19312;SDS011;9791;50.820;4.406;2023-07-28T03:40:15;5.68;;;3.50;;
19312;SDS011;9791;50.820;4.406;2023-07-28T03:42:41;5.72;;;3.20;;
19312;SDS011;9791;50.820;4.406;2023-07-28T03:45:07;9.25;;;3.47;;
19312;SDS011;9791;50.820;4.406;2023-07-28T03:47:33;5.25;;;3.53;;
19312;SDS011;9791;50.820;4.406;2023-07-28T03:50:00;5.32;;;3.33;;
19312;SDS011;9791;50.820;4.406;2023-07-28T03:52:26;5.55;;;3.33;;
19312;SDS011;9791;50.820;4.406;2023-07-28T03:54:52;4.43;;;3.22;;
19312;SDS011;9791;50.820;4.406;2023-07-28T03:57:18;5.43;;;3.33;;
19312;SDS011;9791;50.820;4.406;2023-07-28T03:59:44;4.85;;;3.28;;
19312;SDS011;9791;50.820;4.406;2023-07-28T04:02:10;7.32;;;3.50;;
19312;SDS011;9791;50.820;4.406;2023-07-28T04:04:36;6.40;;;3.58;;
19312;SDS011;9791;50.820;4.406;2023-07-28T04:07:03;4.95;;;3.53;;
19312;SDS011;9791;50.820;4.406;2023-07-28T04:09:29;4.75;;;3.25;;
19312;SDS011;9791;50.820;4.406;2023-07-28T04:11:55;7.18;;;3.70;;
19312;SDS011;9791;50.820;4.406;2023-07-28T04:14:21;6.38;;;3.80;;
19312;SDS011;9791;50.820;4.406;2023-07-28T04:16:47;12.10;;;3.60;;
19312;SDS011;9791;50.820;4.406;2023-07-28T04:19:13;5.90;;;3.20;;
19312;SDS011;9791;50.820;4.406;2023-07-28T04:21:39;5.85;;;3.47;;
19312;SDS011;9791;50.820;4.406;2023-07-28T04:24:06;5.07;;;2.90;;
19312;SDS011;9791;50.820;4.406;2023-07-28T04:26:33;5.13;;;3.00;;
19312;SDS011;9791;50.820;4.406;2023-07-28T04:28:59;5.60;;;2.50;;
19312;SDS011;9791;50.820;4.406;2023-07-28T04:31:25;6.20;;;2.67;;
19312;SDS011;9791;50.820;4.406;2023-07-28T04:33:51;5.13;;;2.38;;
19312;SDS011;9791;50.820;4.406;2023-07-28T04:36:17;4.55;;;2.60;;
19312;SDS011;9791;50.820;4.406;2023-07-28T04:38:43;9.07;;;3.38;;
19312;SDS011;9791;50.820;4.406;2023-07-28T04:41:09;5.60;;;2.90;;
19312;SDS011;9791;50.820;4.406;2023-07-28T04:43:35;6.60;;;2.83;;
19312;SDS011;9791;50.820;4.406;2023-07-28T04:46:01;5.82;;;3.08;;
19312;SDS011;9791;50.820;4.406;2023-07-28T04:48:27;6.15;;;3.00;;
19312;SDS011;9791;50.820;4.406;2023-07-28T04:50:55;5.78;;;2.95;;
19312;SDS011;9791;50.820;4.406;2023-07-28T04:53:21;6.40;;;2.70;;
19312;SDS011;9791;50.820;4.406;2023-07-28T04:55:47;7.18;;;2.78;;
19312;SDS011;9791;50.820;4.406;2023-07-28T04:58:13;6.47;;;2.33;;
19312;SDS011;9791;50.820;4.406;2023-07-28T05:00:39;6.75;;;2.20;;
19312;SDS011;9791;50.820;4.406;2023-07-28T05:03:05;3.80;;;2.00;;
19312;SDS011;9791;50.820;4.406;2023-07-28T05:05:31;6.38;;;2.00;;
19312;SDS011;9791;50.820;4.406;2023-07-28T05:07:57;5.00;;;2.15;;
19312;SDS011;9791;50.820;4.406;2023-07-28T05:10:23;4.78;;;2.40;;
19312;SDS011;9791;50.820;4.406;2023-07-28T05:12:49;4.93;;;2.50;;
19312;SDS011;9791;50.820;4.406;2023-07-28T05:15:15;4.97;;;2.40;;
19312;SDS011;9791;50.820;4.406;2023-07-28T05:17:41;7.75;;;2.03;;
19312;SDS011;9791;50.820;4.406;2023-07-28T05:20:08;4.97;;;1.98;;
19312;SDS011;9791;50.820;4.406;2023-07-28T05:22:34;6.57;;;2.25;;
19312;SDS011;9791;50.820;4.406;2023-07-28T05:25:00;4.50;;;2.25;;
19312;SDS011;9791;50.820;4.406;2023-07-28T05:27:26;4.32;;;2.00;;
19312;SDS011;9791;50.820;4.406;2023-07-28T05:29:52;3.38;;;2.08;;
19312;SDS011;9791;50.820;4.406;2023-07-28T05:32:18;3.75;;;1.90;;
19312;SDS011;9791;50.820;4.406;2023-07-28T05:34:44;4.65;;;1.70;;
19312;SDS011;9791;50.820;4.406;2023-07-28T05:37:10;3.42;;;1.90;;
19312;SDS011;9791;50.820;4.406;2023-07-28T05:39:36;3.92;;;1.75;;
19312;SDS011;9791;50.820;4.406;2023-07-28T05:42:02;3.20;;;1.40;;
19312;SDS011;9791;50.820;4.406;2023-07-28T05:44:28;2.65;;;1.40;;
19312;SDS011;9791;50.820;4.406;2023-07-28T05:46:54;2.50;;;1.48;;
19312;SDS011;9791;50.820;4.406;2023-07-28T05:49:20;4.38;;;1.35;;
19312;SDS011;9791;50.820;4.406;2023-07-28T05:51:46;4.13;;;1.40;;
19312;SDS011;9791;50.820;4.406;2023-07-28T05:54:12;3.28;;;0.93;;
19312;SDS011;9791;50.820;4.406;2023-07-28T05:56:42;2.88;;;1.00;;
19312;SDS011;9791;50.820;4.406;2023-07-28T05:59:08;3.95;;;1.50;;
19312;SDS011;9791;50.820;4.406;2023-07-28T06:01:34;4.20;;;1.10;;
19312;SDS011;9791;50.820;4.406;2023-07-28T06:04:00;2.15;;;1.00;;
19312;SDS011;9791;50.820;4.406;2023-07-28T06:06:26;3.28;;;1.17;;
19312;SDS011;9791;50.820;4.406;2023-07-28T06:08:52;3.38;;;1.20;;
19312;SDS011;9791;50.820;4.406;2023-07-28T06:11:19;3.42;;;1.23;;
19312;SDS011;9791;50.820;4.406;2023-07-28T06:13:45;5.85;;;1.60;;
19312;SDS011;9791;50.820;4.406;2023-07-28T06:16:11;2.90;;;1.50;;
19312;SDS011;9791;50.820;4.406;2023-07-28T06:18:38;2.75;;;1.35;;
19312;SDS011;9791;50.820;4.406;2023-07-28T06:21:04;3.40;;;1.50;;
19312;SDS011;9791;50.820;4.406;2023-07-28T06:23:30;4.50;;;1.70;;
19312;SDS011;9791;50.820;4.406;2023-07-28T06:25:56;3.90;;;1.73;;
19312;SDS011;9791;50.820;4.406;2023-07-28T06:28:22;4.40;;;1.40;;
19312;SDS011;9791;50.820;4.406;2023-07-28T06:30:53;3.40;;;1.30;;
19312;SDS011;9791;50.820;4.406;2023-07-28T06:33:20;1.77;;;1.00;;
19312;SDS011;9791;50.820;4.406;2023-07-28T06:35:46;3.05;;;1.40;;
19312;SDS011;9791;50.820;4.406;2023-07-28T06:38:12;2.55;;;1.20;;
19312;SDS011;9791;50.820;4.406;2023-07-28T06:40:38;2.63;;;1.30;;
19312;SDS011;9791;50.820;4.406;2023-07-28T06:43:04;2.88;;;1.70;;
19312;SDS011;9791;50.820;4.406;2023-07-28T06:45:32;2.55;;;1.23;;
19312;SDS011;9791;50.820;4.406;2023-07-28T06:47:58;5.38;;;1.48;;
19312;SDS011;9791;50.820;4.406;2023-07-28T06:50:24;2.28;;;1.05;;
19312;SDS011;9791;50.820;4.406;2023-07-28T06:52:50;2.28;;;0.95;;
19312;SDS011;9791;50.820;4.406;2023-07-28T06:55:17;3.97;;;0.75;;
19312;SDS011;9791;50.820;4.406;2023-07-28T06:57:44;2.10;;;1.00;;
19312;SDS011;9791;50.820;4.406;2023-07-28T07:00:10;1.80;;;0.90;;
19312;SDS011;9791;50.820;4.406;2023-07-28T07:02:36;2.92;;;1.27;;
19312;SDS011;9791;50.820;4.406;2023-07-28T07:05:02;2.35;;;1.15;;
19312;SDS011;9791;50.820;4.406;2023-07-28T07:07:28;3.30;;;1.42;;
19312;SDS011;9791;50.820;4.406;2023-07-28T07:09:54;4.32;;;1.13;;
19312;SDS011;9791;50.820;4.406;2023-07-28T07:12:20;4.47;;;1.65;;
19312;SDS011;9791;50.820;4.406;2023-07-28T07:14:47;3.42;;;1.50;;
19312;SDS011;9791;50.820;4.406;2023-07-28T07:17:13;2.40;;;1.13;;
19312;SDS011;9791;50.820;4.406;2023-07-28T07:19:39;2.33;;;1.23;;
19312;SDS011;9791;50.820;4.406;2023-07-28T07:22:05;2.53;;;1.20;;
19312;SDS011;9791;50.820;4.406;2023-07-28T07:24:32;1.85;;;0.90;;
19312;SDS011;9791;50.820;4.406;2023-07-28T07:26:58;1.50;;;0.70;;
19312;SDS011;9791;50.820;4.406;2023-07-28T07:29:24;0.80;;;0.57;;
19312;SDS011;9791;50.820;4.406;2023-07-28T07:31:50;1.27;;;0.60;;
19312;SDS011;9791;50.820;4.406;2023-07-28T07:34:20;0.95;;;0.50;;
19312;SDS011;9791;50.820;4.406;2023-07-28T07:36:46;1.38;;;0.70;;
19312;SDS011;9791;50.820;4.406;2023-07-28T07:39:12;2.45;;;0.68;;
19312;SDS011;9791;50.820;4.406;2023-07-28T07:41:39;1.90;;;0.70;;
19312;SDS011;9791;50.820;4.406;2023-07-28T07:44:05;3.67;;;1.00;;
19312;SDS011;9791;50.820;4.406;2023-07-28T07:46:31;1.80;;;0.93;;
19312;SDS011;9791;50.820;4.406;2023-07-28T07:48:57;2.28;;;1.17;;
19312;SDS011;9791;50.820;4.406;2023-07-28T07:51:26;3.75;;;1.20;;
19312;SDS011;9791;50.820;4.406;2023-07-28T07:53:52;4.22;;;1.40;;
19312;SDS011;9791;50.820;4.406;2023-07-28T07:56:20;2.38;;;1.10;;
19312;SDS011;9791;50.820;4.406;2023-07-28T07:58:46;3.17;;;1.27;;
19312;SDS011;9791;50.820;4.406;2023-07-28T08:01:12;3.38;;;1.27;;
19312;SDS011;9791;50.820;4.406;2023-07-28T08:03:38;2.67;;;1.30;;
19312;SDS011;9791;50.820;4.406;2023-07-28T08:06:04;4.90;;;1.95;;
19312;SDS011;9791;50.820;4.406;2023-07-28T08:08:30;3.10;;;1.20;;
19312;SDS011;9791;50.820;4.406;2023-07-28T08:10:56;2.38;;;1.10;;
19312;SDS011;9791;50.820;4.406;2023-07-28T08:13:23;2.53;;;1.05;;
19312;SDS011;9791;50.820;4.406;2023-07-28T08:15:50;2.03;;;1.05;;
19312;SDS011;9791;50.820;4.406;2023-07-28T08:18:16;2.72;;;1.13;;
19312;SDS011;9791;50.820;4.406;2023-07-28T08:20:42;1.45;;;0.80;;
19312;SDS011;9791;50.820;4.406;2023-07-28T08:23:08;3.45;;;0.90;;
19312;SDS011;9791;50.820;4.406;2023-07-28T08:25:34;1.50;;;0.90;;
19312;SDS011;9791;50.820;4.406;2023-07-28T08:28:00;1.48;;;0.80;;
19312;SDS011;9791;50.820;4.406;2023-07-28T08:30:26;1.40;;;0.80;;
19312;SDS011;9791;50.820;4.406;2023-07-28T08:32:52;2.05;;;0.80;;
19312;SDS011;9791;50.820;4.406;2023-07-28T08:35:18;2.47;;;0.82;;
19312;SDS011;9791;50.820;4.406;2023-07-28T08:37:44;1.58;;;0.70;;
19312;SDS011;9791;50.820;4.406;2023-07-28T08:40:10;5.72;;;2.60;;
19312;SDS011;9791;50.820;4.406;2023-07-28T08:42:38;2.08;;;1.10;;
19312;SDS011;9791;50.820;4.406;2023-07-28T08:45:04;3.67;;;0.70;;
19312;SDS011;9791;50.820;4.406;2023-07-28T08:47:31;1.13;;;0.55;;
19312;SDS011;9791;50.820;4.406;2023-07-28T08:49:57;1.98;;;0.77;;
19312;SDS011;9791;50.820;4.406;2023-07-28T08:52:23;1.75;;;0.77;;
19312;SDS011;9791;50.820;4.406;2023-07-28T08:54:50;1.38;;;0.63;;
19312;SDS011;9791;50.820;4.406;2023-07-28T08:57:16;1.48;;;0.60;;
19312;SDS011;9791;50.820;4.406;2023-07-28T08:59:44;1.67;;;0.90;;
19312;SDS011;9791;50.820;4.406;2023-07-28T09:02:14;3.08;;;0.70;;
19312;SDS011;9791;50.820;4.406;2023-07-28T09:04:41;1.20;;;0.65;;
19312;SDS011;9791;50.820;4.406;2023-07-28T09:07:07;1.60;;;0.57;;
19312;SDS011;9791;50.820;4.406;2023-07-28T09:09:34;1.27;;;0.45;;
19312;SDS011;9791;50.820;4.406;2023-07-28T09:12:01;0.90;;;0.50;;
19312;SDS011;9791;50.820;4.406;2023-07-28T09:14:29;2.58;;;0.68;;
19312;SDS011;9791;50.820;4.406;2023-07-28T09:16:55;1.65;;;0.60;;
19312;SDS011;9791;50.820;4.406;2023-07-28T09:19:21;1.63;;;0.70;;
19312;SDS011;9791;50.820;4.406;2023-07-28T09:21:57;1.73;;;0.60;;
19312;SDS011;9791;50.820;4.406;2023-07-28T09:24:28;2.33;;;0.95;;
19312;SDS011;9791;50.820;4.406;2023-07-28T09:26:56;2.78;;;0.75;;
19312;SDS011;9791;50.820;4.406;2023-07-28T09:29:23;2.45;;;1.00;;
19312;SDS011;9791;50.820;4.406;2023-07-28T09:31:49;1.67;;;0.85;;
19312;SDS011;9791;50.820;4.406;2023-07-28T09:34:26;2.08;;;0.90;;
19312;SDS011;9791;50.820;4.406;2023-07-28T09:36:58;2.30;;;1.00;;
19312;SDS011;9791;50.820;4.406;2023-07-28T09:39:25;2.38;;;0.95;;
19312;SDS011;9791;50.820;4.406;2023-07-28T09:41:51;2.65;;;1.08;;
19312;SDS011;9791;50.820;4.406;2023-07-28T09:44:22;3.65;;;1.13;;
19312;SDS011;9791;50.820;4.406;2023-07-28T09:49:15;2.78;;;0.95;;
19312;SDS011;9791;50.820;4.406;2023-07-28T09:51:41;2.10;;;1.10;;
19312;SDS011;9791;50.820;4.406;2023-07-28T09:54:11;3.35;;;1.10;;
19312;SDS011;9791;50.820;4.406;2023-07-28T09:56:38;2.53;;;1.00;;
19312;SDS011;9791;50.820;4.406;2023-07-28T09:59:08;3.03;;;1.10;;
19312;SDS011;9791;50.820;4.406;2023-07-28T10:01:37;2.55;;;1.10;;
19312;SDS011;9791;50.820;4.406;2023-07-28T10:04:03;1.92;;;1.00;;
19312;SDS011;9791;50.820;4.406;2023-07-28T10:06:30;2.03;;;0.95;;
19312;SDS011;9791;50.820;4.406;2023-07-28T10:08:56;1.52;;;0.90;;
19312;SDS011;9791;50.820;4.406;2023-07-28T10:11:22;3.13;;;0.75;;
19312;SDS011;9791;50.820;4.406;2023-07-28T10:13:50;3.53;;;0.90;;
19312;SDS011;9791;50.820;4.406;2023-07-28T10:16:16;1.67;;;0.95;;
19312;SDS011;9791;50.820;4.406;2023-07-28T10:18:53;2.85;;;0.90;;
19312;SDS011;9791;50.820;4.406;2023-07-28T10:21:19;3.17;;;1.20;;
19312;SDS011;9791;50.820;4.406;2023-07-28T10:23:45;2.75;;;0.90;;
19312;SDS011;9791;50.820;4.406;2023-07-28T10:26:30;3.88;;;1.23;;
19312;SDS011;9791;50.820;4.406;2023-07-28T10:28:56;1.67;;;0.80;;
19312;SDS011;9791;50.820;4.406;2023-07-28T10:31:33;3.15;;;0.90;;
19312;SDS011;9791;50.820;4.406;2023-07-28T10:33:59;3.50;;;0.90;;
19312;SDS011;9791;50.820;4.406;2023-07-28T10:39:13;2.78;;;1.00;;
19312;SDS011;9791;50.820;4.406;2023-07-28T10:41:40;2.80;;;1.17;;
19312;SDS011;9791;50.820;4.406;2023-07-28T10:44:25;2.25;;;1.17;;
19312;SDS011;9791;50.820;4.406;2023-07-28T10:46:52;4.70;;;1.58;;
19312;SDS011;9791;50.820;4.406;2023-07-28T10:49:19;3.95;;;1.80;;
19312;SDS011;9791;50.820;4.406;2023-07-28T10:51:45;4.40;;;1.70;;
19312;SDS011;9791;50.820;4.406;2023-07-28T10:54:11;4.22;;;2.00;;
19312;SDS011;9791;50.820;4.406;2023-07-28T10:56:44;3.80;;;2.08;;
19312;SDS011;9791;50.820;4.406;2023-07-28T10:59:11;3.60;;;2.03;;
19312;SDS011;9791;50.820;4.406;2023-07-28T11:01:37;4.35;;;2.20;;
19312;SDS011;9791;50.820;4.406;2023-07-28T11:04:14;4.43;;;2.28;;
19312;SDS011;9791;50.820;4.406;2023-07-28T11:06:41;4.07;;;2.00;;
19312;SDS011;9791;50.820;4.406;2023-07-28T11:09:08;3.40;;;1.70;;
19312;SDS011;9791;50.820;4.406;2023-07-28T11:11:35;3.35;;;1.80;;
19312;SDS011;9791;50.820;4.406;2023-07-28T11:14:01;3.03;;;1.50;;
19312;SDS011;9791;50.820;4.406;2023-07-28T11:16:28;6.03;;;2.10;;
19312;SDS011;9791;50.820;4.406;2023-07-28T11:18:55;3.25;;;1.50;;
19312;SDS011;9791;50.820;4.406;2023-07-28T11:21:22;3.30;;;1.63;;
19312;SDS011;9791;50.820;4.406;2023-07-28T11:23:48;2.65;;;1.27;;
19312;SDS011;9791;50.820;4.406;2023-07-28T11:26:15;2.95;;;1.35;;
19312;SDS011;9791;50.820;4.406;2023-07-28T11:28:43;2.05;;;1.08;;
19312;SDS011;9791;50.820;4.406;2023-07-28T11:31:09;1.90;;;1.20;;
19312;SDS011;9791;50.820;4.406;2023-07-28T11:33:35;3.42;;;1.35;;
19312;SDS011;9791;50.820;4.406;2023-07-28T11:36:01;3.58;;;1.48;;
19312;SDS011;9791;50.820;4.406;2023-07-28T11:38:27;2.97;;;1.30;;
19312;SDS011;9791;50.820;4.406;2023-07-28T11:40:54;4.00;;;1.73;;
19312;SDS011;9791;50.820;4.406;2023-07-28T11:43:21;2.80;;;1.35;;
19312;SDS011;9791;50.820;4.406;2023-07-28T11:45:48;4.13;;;1.20;;
19312;SDS011;9791;50.820;4.406;2023-07-28T11:48:15;2.58;;;1.30;;
19312;SDS011;9791;50.820;4.406;2023-07-28T11:50:42;2.72;;;1.48;;
19312;SDS011;9791;50.820;4.406;2023-07-28T11:53:10;2.53;;;1.40;;
19312;SDS011;9791;50.820;4.406;2023-07-28T11:55:36;3.17;;;1.52;;
19312;SDS011;9791;50.820;4.406;2023-07-28T11:58:03;8.00;;;1.80;;
19312;SDS011;9791;50.820;4.406;2023-07-28T12:00:30;4.22;;;1.55;;
19312;SDS011;9791;50.820;4.406;2023-07-28T12:03:11;4.85;;;1.58;;
19312;SDS011;9791;50.820;4.406;2023-07-28T12:05:38;2.83;;;1.38;;
19312;SDS011;9791;50.820;4.406;2023-07-28T12:08:05;4.40;;;1.35;;
19312;SDS011;9791;50.820;4.406;2023-07-28T12:10:35;4.00;;;1.25;;
19312;SDS011;9791;50.820;4.406;2023-07-28T12:13:04;2.05;;;1.23;;
19312;SDS011;9791;50.820;4.406;2023-07-28T12:15:31;2.85;;;1.38;;
19312;SDS011;9791;50.820;4.406;2023-07-28T12:18:10;2.85;;;1.42;;
19312;SDS011;9791;50.820;4.406;2023-07-28T12:23:26;2.72;;;1.30;;
19312;SDS011;9791;50.820;4.406;2023-07-28T12:25:52;3.00;;;1.38;;
19312;SDS011;9791;50.820;4.406;2023-07-28T12:28:23;3.38;;;1.23;;
19312;SDS011;9791;50.820;4.406;2023-07-28T12:30:49;3.83;;;1.20;;
19312;SDS011;9791;50.820;4.406;2023-07-28T12:33:17;3.90;;;1.40;;
19312;SDS011;9791;50.820;4.406;2023-07-28T12:35:43;2.60;;;1.30;;
19312;SDS011;9791;50.820;4.406;2023-07-28T12:38:09;2.67;;;1.38;;
19312;SDS011;9791;50.820;4.406;2023-07-28T12:40:35;4.30;;;1.42;;
19312;SDS011;9791;50.820;4.406;2023-07-28T12:43:02;2.70;;;1.15;;
19312;SDS011;9791;50.820;4.406;2023-07-28T12:45:29;1.95;;;1.00;;
19312;SDS011;9791;50.820;4.406;2023-07-28T12:47:57;2.95;;;1.15;;
19312;SDS011;9791;50.820;4.406;2023-07-28T12:50:24;2.90;;;1.02;;
19312;SDS011;9791;50.820;4.406;2023-07-28T12:52:50;2.42;;;1.10;;
19312;SDS011;9791;50.820;4.406;2023-07-28T12:55:17;3.17;;;1.20;;
19312;SDS011;9791;50.820;4.406;2023-07-28T12:57:43;2.63;;;1.10;;
19312;SDS011;9791;50.820;4.406;2023-07-28T13:00:10;2.70;;;1.20;;
19312;SDS011;9791;50.820;4.406;2023-07-28T13:02:41;3.13;;;1.15;;
19312;SDS011;9791;50.820;4.406;2023-07-28T13:05:08;3.08;;;1.20;;
19312;SDS011;9791;50.820;4.406;2023-07-28T13:07:35;3.60;;;1.25;;
19312;SDS011;9791;50.820;4.406;2023-07-28T13:10:02;2.45;;;1.17;;
19312;SDS011;9791;50.820;4.406;2023-07-28T13:12:28;4.28;;;1.55;;
19312;SDS011;9791;50.820;4.406;2023-07-28T13:14:55;2.80;;;1.10;;
19312;SDS011;9791;50.820;4.406;2023-07-28T13:17:21;2.70;;;1.10;;
19312;SDS011;9791;50.820;4.406;2023-07-28T13:19:47;2.50;;;1.08;;
19312;SDS011;9791;50.820;4.406;2023-07-28T13:22:13;2.83;;;1.00;;
19312;SDS011;9791;50.820;4.406;2023-07-28T13:24:39;2.20;;;1.00;;
19312;SDS011;9791;50.820;4.406;2023-07-28T13:27:06;3.22;;;1.38;;
19312;SDS011;9791;50.820;4.406;2023-07-28T13:29:32;4.53;;;1.00;;
19312;SDS011;9791;50.820;4.406;2023-07-28T13:31:58;1.75;;;1.00;;
19312;SDS011;9791;50.820;4.406;2023-07-28T13:34:25;4.30;;;1.10;;
19312;SDS011;9791;50.820;4.406;2023-07-28T13:36:52;2.92;;;1.23;;
19312;SDS011;9791;50.820;4.406;2023-07-28T13:39:18;2.50;;;1.10;;
19312;SDS011;9791;50.820;4.406;2023-07-28T13:41:44;2.58;;;1.20;;
19312;SDS011;9791;50.820;4.406;2023-07-28T13:44:10;2.63;;;1.23;;
19312;SDS011;9791;50.820;4.406;2023-07-28T13:46:36;2.63;;;1.00;;
19312;SDS011;9791;50.820;4.406;2023-07-28T13:49:02;4.00;;;1.33;;
19312;SDS011;9791;50.820;4.406;2023-07-28T13:51:28;1.65;;;0.85;;
19312;SDS011;9791;50.820;4.406;2023-07-28T13:53:54;2.05;;;1.00;;
19312;SDS011;9791;50.820;4.406;2023-07-28T13:56:20;1.83;;;0.98;;
19312;SDS011;9791;50.820;4.406;2023-07-28T13:58:46;2.83;;;1.00;;
19312;SDS011;9791;50.820;4.406;2023-07-28T14:01:14;4.88;;;0.80;;
19312;SDS011;9791;50.820;4.406;2023-07-28T14:03:40;2.17;;;1.00;;
19312;SDS011;9791;50.820;4.406;2023-07-28T14:06:07;3.38;;;1.30;;
19312;SDS011;9791;50.820;4.406;2023-07-28T14:08:33;2.65;;;0.90;;
19312;SDS011;9791;50.820;4.406;2023-07-28T14:10:59;2.00;;;0.95;;
19312;SDS011;9791;50.820;4.406;2023-07-28T14:13:26;2.55;;;1.20;;
19312;SDS011;9791;50.820;4.406;2023-07-28T14:15:52;2.83;;;0.82;;
19312;SDS011;9791;50.820;4.406;2023-07-28T14:18:20;4.32;;;1.10;;
19312;SDS011;9791;50.820;4.406;2023-07-28T14:20:46;3.05;;;1.23;;
19312;SDS011;9791;50.820;4.406;2023-07-28T14:23:22;2.40;;;1.00;;
19312;SDS011;9791;50.820;4.406;2023-07-28T14:25:48;3.17;;;1.15;;
19312;SDS011;9791;50.820;4.406;2023-07-28T14:28:14;3.35;;;1.30;;
19312;SDS011;9791;50.820;4.406;2023-07-28T14:30:40;2.35;;;1.13;;
19312;SDS011;9791;50.820;4.406;2023-07-28T14:33:11;2.33;;;1.00;;
19312;SDS011;9791;50.820;4.406;2023-07-28T14:35:37;1.95;;;1.00;;
19312;SDS011;9791;50.820;4.406;2023-07-28T14:38:03;3.47;;;0.80;;
19312;SDS011;9791;50.820;4.406;2023-07-28T14:40:30;3.28;;;1.10;;
19312;SDS011;9791;50.820;4.406;2023-07-28T14:42:56;2.05;;;1.00;;
19312;SDS011;9791;50.820;4.406;2023-07-28T14:45:22;2.88;;;1.10;;
19312;SDS011;9791;50.820;4.406;2023-07-28T14:47:48;3.10;;;1.13;;
19312;SDS011;9791;50.820;4.406;2023-07-28T14:50:14;2.53;;;1.02;;
19312;SDS011;9791;50.820;4.406;2023-07-28T14:52:40;2.08;;;1.00;;
19312;SDS011;9791;50.820;4.406;2023-07-28T14:55:06;4.28;;;1.02;;
19312;SDS011;9791;50.820;4.406;2023-07-28T14:57:32;2.00;;;0.98;;
19312;SDS011;9791;50.820;4.406;2023-07-28T14:59:58;2.22;;;1.08;;
19312;SDS011;9791;50.820;4.406;2023-07-28T15:02:24;4.05;;;1.27;;
19312;SDS011;9791;50.820;4.406;2023-07-28T15:04:50;2.42;;;1.30;;
19312;SDS011;9791;50.820;4.406;2023-07-28T15:07:17;2.17;;;1.08;;
19312;SDS011;9791;50.820;4.406;2023-07-28T15:09:44;2.85;;;1.20;;